createdAt,value
2018-06-13T00:00:04.951Z,100010
2018-06-13T00:02:33.793Z,100011
2018-06-13T00:05:02.653Z,100013
2018-06-13T00:07:31.531Z,100008
2018-06-13T00:10:01.065Z,100017
2018-06-13T00:12:29.901Z,100016
2018-06-13T00:14:58.746Z,100022
2018-06-13T00:17:27.577Z,100015
2018-06-13T00:19:56.410Z,100014
2018-06-13T00:22:25.242Z,100024
2018-06-13T00:24:54.080Z,100028
2018-06-13T00:27:22.931Z,100034
2018-06-13T00:29:52.506Z,100028
2018-06-13T00:32:21.351Z,100041
2018-06-13T00:34:51.524Z,100031
2018-06-13T00:37:19.023Z,100049
2018-06-13T00:39:47.864Z,100044
2018-06-13T00:42:16.719Z,100045
2018-06-13T00:44:45.551Z,100042
2018-06-13T00:47:14.412Z,100038
2018-06-13T00:49:43.250Z,100033
2018-06-13T00:52:12.310Z,100033
2018-06-13T00:54:40.918Z,100039
2018-06-13T00:57:09.767Z,100035
2018-06-13T00:59:38.602Z,100037
2018-06-13T01:02:08.188Z,100039
2018-06-13T01:04:37.052Z,100039
2018-06-13T01:07:05.889Z,100050
2018-06-13T01:09:34.808Z,100039
2018-06-13T01:12:03.639Z,100030
2018-06-13T01:14:32.491Z,100042
2018-06-13T01:17:01.324Z,100032
2018-06-13T01:19:30.173Z,100032
2018-06-13T01:21:59.031Z,100027
2018-06-13T01:24:28.595Z,100026
2018-06-13T01:26:57.469Z,100020
2018-06-13T01:29:26.290Z,100028
2018-06-13T01:31:55.129Z,100035
2018-06-13T01:34:23.970Z,100031
2018-06-13T01:36:52.797Z,100032
2018-06-13T01:39:21.654Z,100031
2018-06-13T01:41:51.244Z,100029
2018-06-13T01:44:20.078Z,100030
2018-06-13T01:46:48.917Z,100020
2018-06-13T01:49:17.772Z,100021
2018-06-13T01:51:46.599Z,100024
2018-06-13T01:54:15.447Z,100023
2018-06-13T01:56:44.287Z,100027
2018-06-13T01:59:13.132Z,100029
2018-06-13T02:01:41.957Z,100035
2018-06-13T02:04:10.792Z,100040
2018-06-13T02:06:39.631Z,100035
2018-06-13T02:09:08.469Z,100039
2018-06-13T02:11:37.312Z,100034
2018-06-13T02:14:06.147Z,100038
2018-06-13T02:16:34.995Z,100040
2018-06-13T02:19:03.837Z,100049
2018-06-13T02:21:32.680Z,100051
2018-06-13T02:24:01.532Z,100039
2018-06-13T02:26:30.375Z,100046
2018-06-13T02:28:59.965Z,100046
2018-06-13T02:31:30.162Z,100046
2018-06-13T02:33:59.003Z,100057
2018-06-13T02:36:27.844Z,100039
2018-06-13T02:38:57.197Z,100041
2018-06-13T02:41:26.038Z,100042
2018-06-13T02:43:54.882Z,100046
2018-06-13T02:46:23.734Z,100046
2018-06-13T02:48:52.574Z,100053
2018-06-13T02:51:21.419Z,100047
2018-06-13T02:53:50.266Z,100046
2018-06-13T02:56:19.110Z,100044
2018-06-13T02:58:47.955Z,100049
2018-06-13T03:01:16.811Z,100046
2018-06-13T03:03:45.649Z,100040
2018-06-13T03:06:14.502Z,100046
2018-06-13T03:08:44.674Z,100045
2018-06-13T03:11:12.200Z,100048
2018-06-13T03:13:41.038Z,100051
2018-06-13T03:16:09.887Z,100056
2018-06-13T03:18:38.719Z,100054
2018-06-13T03:21:07.542Z,100055
2018-06-13T03:23:36.377Z,100059
2018-06-13T03:26:05.950Z,100059
2018-06-13T03:28:34.783Z,100068
2018-06-13T03:31:04.371Z,100065
2018-06-13T03:33:33.215Z,100069
2018-06-13T03:36:02.050Z,100068
2018-06-13T03:38:31.767Z,100074
2018-06-13T03:41:00.628Z,100064
2018-06-13T03:43:29.459Z,100068
2018-06-13T03:45:59.055Z,100075
2018-06-13T03:48:28.647Z,100082
2018-06-13T03:50:57.837Z,100087
2018-06-13T03:53:26.683Z,100086
2018-06-13T03:55:55.525Z,100083
2018-06-13T03:58:24.376Z,100088
2018-06-13T04:00:53.217Z,100090
2018-06-13T04:03:22.065Z,100088
2018-06-13T04:05:50.922Z,100090
2018-06-13T04:08:19.795Z,100093
2018-06-13T04:10:48.634Z,100103
2018-06-13T04:13:17.468Z,100093
2018-06-13T04:15:46.320Z,100098
2018-06-13T04:18:15.173Z,100097
2018-06-13T04:20:44.014Z,100100
2018-06-13T04:23:12.865Z,100104
2018-06-13T04:25:41.707Z,100111
2018-06-13T04:28:10.562Z,100110
2018-06-13T04:30:39.405Z,100108
2018-06-13T04:33:08.249Z,100114
2018-06-13T04:35:37.098Z,100107
2018-06-13T04:38:05.938Z,100105
2018-06-13T04:40:34.800Z,100107
2018-06-13T04:43:03.638Z,100112
2018-06-13T04:45:33.228Z,100116
2018-06-13T04:48:02.077Z,100123
2018-06-13T04:50:30.913Z,100123
2018-06-13T04:53:00.500Z,100126
2018-06-13T04:55:29.938Z,100124
2018-06-13T04:57:58.783Z,100139
2018-06-13T05:00:27.629Z,100142
2018-06-13T05:02:56.485Z,100144
2018-06-13T05:05:25.330Z,100141
2018-06-13T05:07:54.217Z,100147
2018-06-13T05:10:23.107Z,100153
2018-06-13T05:12:51.922Z,100142
2018-06-13T05:15:20.767Z,100146
2018-06-13T05:17:49.733Z,100150
2018-06-13T05:20:19.355Z,100150
2018-06-13T05:22:48.197Z,100148
2018-06-13T05:25:17.041Z,100153
2018-06-13T05:27:45.885Z,100153
2018-06-13T05:30:15.328Z,100155
2018-06-13T05:32:44.178Z,100159
2018-06-13T05:35:13.055Z,100154
2018-06-13T05:37:41.905Z,100161
2018-06-13T05:40:10.753Z,100168
2018-06-13T05:42:39.606Z,100165
2018-06-13T05:45:08.462Z,100169
2018-06-13T05:47:37.302Z,100173
2018-06-13T05:50:06.150Z,100177
2018-06-13T05:52:34.989Z,100175
2018-06-13T05:55:03.839Z,100173
2018-06-13T05:57:32.682Z,100175
2018-06-13T06:00:01.548Z,100172
2018-06-13T06:02:30.389Z,100183
2018-06-13T06:04:59.224Z,100169
2018-06-13T06:07:28.069Z,100192
2018-06-13T06:09:56.910Z,100184
2018-06-13T06:12:25.751Z,100190
2018-06-13T06:14:54.589Z,100184
2018-06-13T06:17:23.448Z,100189
2018-06-13T06:19:52.288Z,100183
2018-06-13T06:22:21.875Z,100191
2018-06-13T06:24:51.464Z,100190
2018-06-13T06:27:20.295Z,100188
2018-06-13T06:29:49.884Z,100199
2018-06-13T06:32:18.744Z,100199
2018-06-13T06:34:47.584Z,100204
2018-06-13T06:37:17.163Z,100210
2018-06-13T06:39:46.047Z,100221
2018-06-13T06:42:14.906Z,100217
2018-06-13T06:44:44.440Z,100218
2018-06-13T06:47:13.274Z,100214
2018-06-13T06:49:42.177Z,100218
2018-06-13T06:52:10.956Z,100214
2018-06-13T06:54:39.867Z,100211
2018-06-13T06:57:08.643Z,100216
2018-06-13T06:59:37.495Z,100215
2018-06-13T07:02:06.341Z,100215
2018-06-13T07:04:35.208Z,100219
2018-06-13T07:07:04.055Z,100221
2018-06-13T07:09:32.890Z,100225
2018-06-13T07:12:01.726Z,100225
2018-06-13T07:14:30.565Z,100226
2018-06-13T07:16:59.409Z,100228
2018-06-13T07:19:28.521Z,100225
2018-06-13T07:21:57.087Z,100233
2018-06-13T07:24:26.671Z,100240
2018-06-13T07:26:55.504Z,100238
2018-06-13T07:29:25.091Z,100243
2018-06-13T07:31:53.930Z,100235
2018-06-13T07:34:22.768Z,100237
2018-06-13T07:36:51.602Z,100237
2018-06-13T07:39:20.437Z,100235
2018-06-13T07:41:49.603Z,100241
2018-06-13T07:44:19.455Z,100237
2018-06-13T07:46:48.295Z,100240
2018-06-13T07:49:17.135Z,100241
2018-06-13T07:51:45.987Z,100232
2018-06-13T07:54:14.823Z,100240
2018-06-13T07:56:43.707Z,100237
2018-06-13T07:59:13.301Z,100237
2018-06-13T08:01:42.127Z,100235
2018-06-13T08:04:10.971Z,100238
2018-06-13T08:06:39.807Z,100236
2018-06-13T08:09:08.652Z,100243
2018-06-13T08:11:37.485Z,100252
2018-06-13T08:14:06.365Z,100243
2018-06-13T08:16:35.168Z,100254
2018-06-13T08:19:04.007Z,100244
2018-06-13T08:21:32.854Z,100241
2018-06-13T08:24:01.699Z,100238
2018-06-13T08:26:30.552Z,100246
2018-06-13T08:28:59.383Z,100248
2018-06-13T08:31:28.977Z,100255
2018-06-13T08:33:57.834Z,100243
2018-06-13T08:36:26.692Z,100248
2018-06-13T08:38:55.535Z,100239
2018-06-13T08:41:26.544Z,100248
2018-06-13T08:43:54.094Z,100248
2018-06-13T08:46:22.943Z,100252
2018-06-13T08:48:51.766Z,100262
2018-06-13T08:51:20.629Z,100249
2018-06-13T08:53:49.490Z,100252
2018-06-13T08:56:18.334Z,100258
2018-06-13T08:58:47.166Z,100258
2018-06-13T09:01:16.051Z,100269
2018-06-13T09:03:44.887Z,100267
2018-06-13T09:06:13.735Z,100274
2018-06-13T09:08:42.576Z,100276
2018-06-13T09:11:11.412Z,100274
2018-06-13T09:13:40.251Z,100283
2018-06-13T09:16:09.839Z,100285
2018-06-13T09:18:39.436Z,100277
2018-06-13T09:21:08.284Z,100285
2018-06-13T09:23:37.120Z,100279
2018-06-13T09:26:05.962Z,100288
2018-06-13T09:28:34.802Z,100288
2018-06-13T09:31:04.397Z,100287
2018-06-13T09:33:33.241Z,100295
2018-06-13T09:36:02.108Z,100303
2018-06-13T09:38:31.681Z,100307
2018-06-13T09:41:00.522Z,100302
2018-06-13T09:43:29.414Z,100304
2018-06-13T09:46:03.400Z,100307
2018-06-13T09:48:27.803Z,100304
2018-06-13T09:50:56.647Z,100303
2018-06-13T09:53:26.088Z,100299
2018-06-13T09:55:54.930Z,100309
2018-06-13T09:58:23.779Z,100305
2018-06-13T10:00:58.279Z,100302
2018-06-13T10:03:27.119Z,100308
2018-06-13T10:05:55.962Z,100310
2018-06-13T10:08:24.806Z,100311
2018-06-13T10:10:53.648Z,100340
2018-06-13T10:13:22.496Z,100306
2018-06-13T10:15:51.328Z,100316
2018-06-13T10:18:20.169Z,100313
2018-06-13T10:20:49.035Z,100326
2018-06-13T10:23:17.878Z,100306
2018-06-13T10:25:46.704Z,100312
2018-06-13T10:28:15.547Z,100307
2018-06-13T10:30:45.206Z,100310
2018-06-13T10:33:14.035Z,100305
2018-06-13T10:35:43.611Z,100309
2018-06-13T10:38:12.500Z,100314
2018-06-13T10:40:41.416Z,100319
2018-06-13T10:43:10.227Z,100326
2018-06-13T10:45:39.090Z,100321
2018-06-13T10:48:07.935Z,100335
2018-06-13T10:50:38.268Z,100334
2018-06-13T10:53:06.304Z,100335
2018-06-13T10:55:35.176Z,100336
2018-06-13T10:58:03.967Z,100335
2018-06-13T11:00:32.810Z,100326
2018-06-13T11:03:01.641Z,100337
2018-06-13T11:05:31.226Z,100336
2018-06-13T11:08:00.804Z,100336
2018-06-13T11:10:29.637Z,100338
2018-06-13T11:12:58.492Z,100344
2018-06-13T11:15:27.326Z,100354
2018-06-13T11:17:56.174Z,100351
2018-06-13T11:20:25.080Z,100350
2018-06-13T11:22:54.523Z,100361
2018-06-13T11:25:23.377Z,100358
2018-06-13T11:27:52.230Z,100358
2018-06-13T11:30:21.075Z,100360
2018-06-13T11:32:49.938Z,100365
2018-06-13T11:35:18.786Z,100360
2018-06-13T11:37:47.626Z,100361
2018-06-13T11:40:16.476Z,100359
2018-06-13T11:42:45.302Z,100365
2018-06-13T11:45:14.189Z,100342
2018-06-13T11:47:43.764Z,100358
2018-06-13T11:50:12.601Z,100353
2018-06-13T11:52:42.184Z,100358
2018-06-13T11:55:11.044Z,100358
2018-06-13T11:57:40.172Z,100362
2018-06-13T12:00:09.021Z,100362
2018-06-13T12:02:37.863Z,100375
2018-06-13T12:05:06.709Z,100375
2018-06-13T12:07:35.545Z,100363
2018-06-13T12:10:04.400Z,100362
2018-06-13T12:12:33.235Z,100370
2018-06-13T12:15:02.820Z,100358
2018-06-13T12:17:31.683Z,100362
2018-06-13T12:20:00.526Z,100353
2018-06-13T12:22:29.407Z,100356
2018-06-13T12:24:58.203Z,100359
2018-06-13T12:27:27.041Z,100363
2018-06-13T12:29:55.877Z,100361
2018-06-13T12:32:25.464Z,100362
2018-06-13T12:34:55.044Z,100369
2018-06-13T12:37:23.889Z,100374
2018-06-13T12:39:52.736Z,100368
2018-06-13T12:42:21.579Z,100363
2018-06-13T12:44:50.425Z,100361
2018-06-13T12:47:19.271Z,100367
2018-06-13T12:49:48.103Z,100371
2018-06-13T12:52:16.964Z,100373
2018-06-13T12:54:45.811Z,100368
2018-06-13T12:57:14.662Z,100371
2018-06-13T12:59:43.523Z,100383
2018-06-13T13:02:12.371Z,100374
2018-06-13T13:04:42.972Z,100373
2018-06-13T13:07:11.773Z,100372
2018-06-13T13:09:40.627Z,100370
2018-06-13T13:12:09.498Z,100374
2018-06-13T13:14:39.047Z,100367
2018-06-13T13:17:07.891Z,100378
2018-06-13T13:19:36.733Z,100367
2018-06-13T13:22:06.315Z,100367
2018-06-13T13:24:35.149Z,100368
2018-06-13T13:27:04.724Z,100364
2018-06-13T13:29:33.569Z,100367
2018-06-13T13:32:02.413Z,100377
2018-06-13T13:34:31.255Z,100372
2018-06-13T13:37:00.117Z,100366
2018-06-13T13:39:28.960Z,100374
2018-06-13T13:41:57.787Z,100384
2018-06-13T13:44:27.369Z,100382
2018-06-13T13:46:56.212Z,100387
2018-06-13T13:49:25.053Z,100397
2018-06-13T13:51:53.903Z,100385
2018-06-13T13:54:22.757Z,100392
2018-06-13T13:56:51.594Z,100394
2018-06-13T13:59:20.432Z,100397
2018-06-13T14:01:49.269Z,100394
2018-06-13T14:04:18.111Z,100394
2018-06-13T14:06:47.700Z,100392
2018-06-13T14:09:16.571Z,100401
2018-06-13T14:11:45.434Z,100404
2018-06-13T14:14:14.267Z,100405
2018-06-13T14:16:43.853Z,100406
2018-06-13T14:19:12.693Z,100401
2018-06-13T14:21:41.549Z,100404
2018-06-13T14:24:10.373Z,100398
2018-06-13T14:26:39.210Z,100393
2018-06-13T14:29:08.052Z,100405
2018-06-13T14:31:36.904Z,100401
2018-06-13T14:34:05.747Z,100407
2018-06-13T14:36:34.674Z,100409
2018-06-13T14:39:04.113Z,100416
2018-06-13T14:41:32.965Z,100415
2018-06-13T14:44:02.415Z,100418
2018-06-13T14:46:31.318Z,100422
2018-06-13T14:49:00.874Z,100415
2018-06-13T14:51:29.724Z,100415
2018-06-13T14:53:58.579Z,100415
2018-06-13T14:56:27.458Z,100415
2018-06-13T14:58:56.274Z,100411
2018-06-13T15:01:25.120Z,100411
2018-06-13T15:03:53.963Z,100414
2018-06-13T15:06:22.807Z,100411
2018-06-13T15:08:51.659Z,100419
2018-06-13T15:11:21.435Z,100418
2018-06-13T15:13:50.287Z,100413
2018-06-13T15:16:19.120Z,100415
2018-06-13T15:18:47.968Z,100414
2018-06-13T15:21:16.824Z,100417
2018-06-13T15:23:45.671Z,100417
2018-06-13T15:26:14.878Z,100418
2018-06-13T15:28:44.315Z,100424
2018-06-13T15:31:13.166Z,100430
2018-06-13T15:33:42.009Z,100433
2018-06-13T15:36:10.852Z,100429
2018-06-13T15:38:39.704Z,100427
2018-06-13T15:41:08.547Z,100422
2018-06-13T15:43:37.392Z,100429
2018-06-13T15:46:06.984Z,100430
2018-06-13T15:48:35.828Z,100426
2018-06-13T15:51:04.672Z,100420
2018-06-13T15:53:34.260Z,100420
2018-06-13T15:56:03.086Z,100426
2018-06-13T15:58:31.930Z,100416
2018-06-13T16:01:00.760Z,100413
2018-06-13T16:03:29.611Z,100424
2018-06-13T16:05:58.598Z,100435
2018-06-13T16:08:27.321Z,100432
2018-06-13T16:10:56.194Z,100426
2018-06-13T16:13:25.021Z,100431
2018-06-13T16:15:54.134Z,100433
2018-06-13T16:18:22.979Z,100429
2018-06-13T16:20:52.556Z,100434
2018-06-13T16:23:22.210Z,100436
2018-06-13T16:25:51.055Z,100445
2018-06-13T16:28:20.481Z,100443
2018-06-13T16:30:50.106Z,100440
2018-06-13T16:33:18.968Z,100448
2018-06-13T16:35:47.868Z,100445
2018-06-13T16:38:17.591Z,100447
2018-06-13T16:40:47.168Z,100446
2018-06-13T16:43:16.011Z,100453
2018-06-13T16:45:44.848Z,100452
2018-06-13T16:48:13.713Z,100457
2018-06-13T16:50:44.375Z,100450
2018-06-13T16:53:13.223Z,100446
2018-06-13T16:55:42.060Z,100461
2018-06-13T16:58:10.904Z,100465
2018-06-13T17:00:39.746Z,100468
2018-06-13T17:03:09.337Z,100468
2018-06-13T17:05:38.178Z,100438
2018-06-13T17:08:07.648Z,100459
2018-06-13T17:10:36.529Z,100462
2018-06-13T17:13:05.370Z,100455
2018-06-13T17:15:35.045Z,100459
2018-06-13T17:18:03.884Z,100458
2018-06-13T17:20:32.717Z,100462
2018-06-13T17:23:02.310Z,100463
2018-06-13T17:25:31.136Z,100470
2018-06-13T17:27:59.967Z,100472
2018-06-13T17:30:28.793Z,100474
2018-06-13T17:32:57.632Z,100470
2018-06-13T17:35:26.468Z,100471
2018-06-13T17:37:55.328Z,100482
2018-06-13T17:40:24.162Z,100485
2018-06-13T17:42:52.991Z,100480
2018-06-13T17:45:21.829Z,100489
2018-06-13T17:47:50.665Z,100497
2018-06-13T17:50:19.510Z,100494
2018-06-13T17:52:48.375Z,100495
2018-06-13T17:55:17.211Z,100500
2018-06-13T17:57:46.046Z,100496
2018-06-13T18:00:14.889Z,100493
2018-06-13T18:02:43.734Z,100497
2018-06-13T18:05:12.580Z,100494
2018-06-13T18:07:41.429Z,100495
2018-06-13T18:10:10.286Z,100496
2018-06-13T18:12:39.116Z,100500
2018-06-13T18:15:07.950Z,100502
2018-06-13T18:17:36.788Z,100509
2018-06-13T18:20:06.284Z,100508
2018-06-13T18:22:35.144Z,100502
2018-06-13T18:25:03.994Z,100511
2018-06-13T18:27:32.831Z,100507
2018-06-13T18:30:01.689Z,100513
2018-06-13T18:32:30.533Z,100515
2018-06-13T18:34:59.899Z,100524
2018-06-13T18:37:28.736Z,100526
2018-06-13T18:39:57.570Z,100533
2018-06-13T18:42:27.193Z,100537
2018-06-13T18:44:56.045Z,100530
2018-06-13T18:47:24.879Z,100538
2018-06-13T18:49:53.729Z,100534
2018-06-13T18:52:22.578Z,100541
2018-06-13T18:54:51.430Z,100535
2018-06-13T18:57:20.280Z,100542
2018-06-13T18:59:49.138Z,100536
2018-06-13T19:02:17.981Z,100541
2018-06-13T19:04:46.821Z,100532
2018-06-13T19:07:15.669Z,100537
2018-06-13T19:09:44.512Z,100532
2018-06-13T19:12:13.371Z,100536
2018-06-13T19:14:42.228Z,100543
2018-06-13T19:17:11.069Z,100543
2018-06-13T19:19:39.921Z,100545
2018-06-13T19:22:08.769Z,100550
2018-06-13T19:24:37.608Z,100552
2018-06-13T19:27:06.451Z,100552
2018-06-13T19:29:35.314Z,100555
2018-06-13T19:32:04.888Z,100565
2018-06-13T19:34:33.726Z,100567
2018-06-13T19:37:02.584Z,100569
2018-06-13T19:39:31.430Z,100565
2018-06-13T19:42:00.270Z,100571
2018-06-13T19:44:29.114Z,100574
2018-06-13T19:46:57.947Z,100578
2018-06-13T19:49:26.798Z,100580
2018-06-13T19:51:55.626Z,100582
2018-06-13T19:54:30.706Z,100586
2018-06-13T19:56:59.570Z,100594
2018-06-13T19:59:28.729Z,100588
2018-06-13T20:01:58.379Z,100596
2018-06-13T20:04:27.793Z,100597
2018-06-13T20:06:56.687Z,100607
2018-06-13T20:09:25.498Z,100609
2018-06-13T20:11:54.364Z,100610
2018-06-13T20:14:23.955Z,100602
2018-06-13T20:16:53.677Z,100600
2018-06-13T20:19:27.950Z,100601
2018-06-13T20:21:57.822Z,100602
2018-06-13T20:24:26.393Z,100613
2018-06-13T20:27:00.812Z,100602
2018-06-13T20:29:30.572Z,100607
2018-06-13T20:31:59.416Z,100605
2018-06-13T20:34:28.265Z,100596
2018-06-13T20:37:00.328Z,100603
2018-06-13T20:39:29.906Z,100607
2018-06-13T20:41:58.756Z,100607
2018-06-13T20:44:27.594Z,100611
2018-06-13T20:46:56.440Z,100603
2018-06-13T20:49:25.285Z,100617
2018-06-13T20:51:54.866Z,100610
2018-06-13T20:54:23.700Z,100606
2018-06-13T20:56:52.550Z,100614
2018-06-13T20:59:21.388Z,100633
2018-06-13T21:01:51.168Z,100608
2018-06-13T21:04:20.758Z,100603
2018-06-13T21:06:49.616Z,100606
2018-06-13T21:09:18.462Z,100601
2018-06-13T21:11:48.045Z,100605
2018-06-13T21:14:16.877Z,100607
2018-06-13T21:16:45.720Z,100612
2018-06-13T21:19:15.161Z,100604
2018-06-13T21:21:44.131Z,100605
2018-06-13T21:24:12.976Z,100607
2018-06-13T21:26:41.829Z,100610
2018-06-13T21:29:11.415Z,100614
2018-06-13T21:31:40.347Z,100619
2018-06-13T21:34:09.898Z,100616
2018-06-13T21:36:38.733Z,100620
2018-06-13T21:39:07.593Z,100615
2018-06-13T21:41:37.196Z,100612
2018-06-13T21:44:06.041Z,100612
2018-06-13T21:46:34.883Z,100628
2018-06-13T21:49:04.464Z,100618
2018-06-13T21:51:33.294Z,100612
2018-06-13T21:54:02.140Z,100614
2018-06-13T21:56:30.985Z,100626
2018-06-13T21:59:00.473Z,100617
2018-06-13T22:01:29.244Z,100626
2018-06-13T22:03:58.821Z,100629
2018-06-13T22:06:27.656Z,100632
2018-06-13T22:08:56.493Z,100637
2018-06-13T22:11:25.341Z,100626
2018-06-13T22:13:54.188Z,100626
2018-06-13T22:16:23.022Z,100623
2018-06-13T22:18:51.867Z,100624
2018-06-13T22:21:21.295Z,100625
2018-06-13T22:23:50.886Z,100619
2018-06-13T22:26:19.749Z,100621
2018-06-13T22:28:48.545Z,100620
2018-06-13T22:31:17.983Z,100613
2018-06-13T22:33:47.562Z,100614
2018-06-13T22:36:16.432Z,100616
2018-06-13T22:38:45.287Z,100618
2018-06-13T22:41:14.135Z,100623
2018-06-13T22:43:43.716Z,100623
2018-06-13T22:46:12.550Z,100617
2018-06-13T22:48:42.149Z,100618
2018-06-13T22:51:11.744Z,100614
2018-06-13T22:53:41.185Z,100606
2018-06-13T22:56:10.028Z,100595
2018-06-13T22:58:38.869Z,100600
2018-06-13T23:01:07.712Z,100603
2018-06-13T23:03:37.209Z,100606
2018-06-13T23:06:06.046Z,100598
2018-06-13T23:08:34.886Z,100590
2018-06-13T23:11:03.727Z,100595
2018-06-13T23:13:32.577Z,100589
2018-06-13T23:16:02.032Z,100600
2018-06-13T23:18:30.871Z,100591
2018-06-13T23:20:59.711Z,100595
2018-06-13T23:23:28.548Z,100589
2018-06-13T23:25:57.408Z,100595
2018-06-13T23:28:26.268Z,100588
2018-06-13T23:30:55.112Z,100593
2018-06-13T23:33:23.958Z,100592
2018-06-13T23:35:52.791Z,100581
2018-06-13T23:38:21.669Z,100587
2018-06-13T23:40:51.411Z,100596
2018-06-13T23:43:20.818Z,100599
2018-06-13T23:45:49.702Z,100596
2018-06-13T23:48:18.573Z,100602
2018-06-13T23:50:47.426Z,100599
2018-06-13T23:53:16.257Z,100590
2018-06-13T23:55:45.847Z,100589
2018-06-13T23:58:14.691Z,100587
